sensor_id;sensor_type;location;lat;lon;timestamp;temperature;humidity
17740;DHT22;8990;33.226;-97.150;2023-03-01T00:01:59;24.60;68.70
17740;DHT22;8990;33.226;-97.150;2023-03-01T00:04:28;24.40;68.90
17740;DHT22;8990;33.226;-97.150;2023-03-01T00:06:57;24.30;69.00
17740;DHT22;8990;33.226;-97.150;2023-03-01T00:09:27;24.20;69.50
17740;DHT22;8990;33.226;-97.150;2023-03-01T00:11:56;24.10;68.80
17740;DHT22;8990;33.226;-97.150;2023-03-01T00:14:25;24.00;69.20
17740;DHT22;8990;33.226;-97.150;2023-03-01T00:16:55;23.90;68.80
17740;DHT22;8990;33.226;-97.150;2023-03-01T00:19:23;23.80;68.80
17740;DHT22;8990;33.226;-97.150;2023-03-01T00:21:52;23.70;69.30
17740;DHT22;8990;33.226;-97.150;2023-03-01T00:24:21;23.60;69.60
17740;DHT22;8990;33.226;-97.150;2023-03-01T00:26:55;23.40;69.50
17740;DHT22;8990;33.226;-97.150;2023-03-01T00:29:25;23.30;69.70
17740;DHT22;8990;33.226;-97.150;2023-03-01T00:31:54;23.20;69.80
17740;DHT22;8990;33.226;-97.150;2023-03-01T00:34:23;23.10;69.90
17740;DHT22;8990;33.226;-97.150;2023-03-01T00:36:52;23.00;70.20
17740;DHT22;8990;33.226;-97.150;2023-03-01T00:39:21;22.90;70.40
17740;DHT22;8990;33.226;-97.150;2023-03-01T00:41:51;22.80;70.40
17740;DHT22;8990;33.226;-97.150;2023-03-01T00:44:22;22.70;70.30
17740;DHT22;8990;33.226;-97.150;2023-03-01T00:46:51;22.60;70.60
17740;DHT22;8990;33.226;-97.150;2023-03-01T00:49:20;22.50;70.90
17740;DHT22;8990;33.226;-97.150;2023-03-01T00:51:51;22.40;71.00
17740;DHT22;8990;33.226;-97.150;2023-03-01T00:54:20;22.30;71.30
17740;DHT22;8990;33.226;-97.150;2023-03-01T00:56:49;22.20;71.70
17740;DHT22;8990;33.226;-97.150;2023-03-01T00:59:18;22.20;71.90
17740;DHT22;8990;33.226;-97.150;2023-03-01T01:01:49;22.10;71.80
17740;DHT22;8990;33.226;-97.150;2023-03-01T01:04:18;22.00;72.10
17740;DHT22;8990;33.226;-97.150;2023-03-01T01:06:47;22.00;72.40
17740;DHT22;8990;33.226;-97.150;2023-03-01T01:09:17;21.90;72.90
17740;DHT22;8990;33.226;-97.150;2023-03-01T01:11:48;21.90;72.60
17740;DHT22;8990;33.226;-97.150;2023-03-01T01:14:19;21.80;73.20
17740;DHT22;8990;33.226;-97.150;2023-03-01T01:16:50;21.70;73.20
17740;DHT22;8990;33.226;-97.150;2023-03-01T01:19:19;21.70;73.50
17740;DHT22;8990;33.226;-97.150;2023-03-01T01:21:48;21.70;73.10
17740;DHT22;8990;33.226;-97.150;2023-03-01T01:24:19;21.60;73.20
17740;DHT22;8990;33.226;-97.150;2023-03-01T01:26:48;21.70;73.20
17740;DHT22;8990;33.226;-97.150;2023-03-01T01:29:17;21.70;73.20
17740;DHT22;8990;33.226;-97.150;2023-03-01T01:31:47;21.60;73.20
17740;DHT22;8990;33.226;-97.150;2023-03-01T01:34:20;21.60;73.50
17740;DHT22;8990;33.226;-97.150;2023-03-01T01:36:50;21.60;73.80
17740;DHT22;8990;33.226;-97.150;2023-03-01T01:39:20;21.60;73.70
17740;DHT22;8990;33.226;-97.150;2023-03-01T01:41:50;21.60;74.00
17740;DHT22;8990;33.226;-97.150;2023-03-01T01:44:22;21.60;74.30
17740;DHT22;8990;33.226;-97.150;2023-03-01T01:46:54;21.60;74.60
17740;DHT22;8990;33.226;-97.150;2023-03-01T01:49:30;21.60;75.10
17740;DHT22;8990;33.226;-97.150;2023-03-01T01:52:05;21.50;75.40
17740;DHT22;8990;33.226;-97.150;2023-03-01T01:54:41;21.60;87.20
17740;DHT22;8990;33.226;-97.150;2023-03-01T01:57:14;21.60;85.10
17740;DHT22;8990;33.226;-97.150;2023-03-01T01:59:49;21.60;85.30
17740;DHT22;8990;33.226;-97.150;2023-03-01T02:02:20;21.50;84.90
17740;DHT22;8990;33.226;-97.150;2023-03-01T02:04:55;21.50;85.60
17740;DHT22;8990;33.226;-97.150;2023-03-01T02:07:27;21.50;85.90
17740;DHT22;8990;33.226;-97.150;2023-03-01T02:09:57;21.40;85.60
17740;DHT22;8990;33.226;-97.150;2023-03-01T02:12:27;21.50;86.40
17740;DHT22;8990;33.226;-97.150;2023-03-01T02:14:56;21.50;87.50
17740;DHT22;8990;33.226;-97.150;2023-03-01T02:17:25;21.40;88.60
17740;DHT22;8990;33.226;-97.150;2023-03-01T02:20:07;21.40;87.40
17740;DHT22;8990;33.226;-97.150;2023-03-01T02:22:38;21.30;87.30
17740;DHT22;8990;33.226;-97.150;2023-03-01T02:25:21;21.30;87.60
17740;DHT22;8990;33.226;-97.150;2023-03-01T02:27:54;21.20;89.20
17740;DHT22;8990;33.226;-97.150;2023-03-01T02:30:29;21.10;88.00
17740;DHT22;8990;33.226;-97.150;2023-03-01T02:33:00;21.20;88.80
17740;DHT22;8990;33.226;-97.150;2023-03-01T02:35:34;21.10;89.20
17740;DHT22;8990;33.226;-97.150;2023-03-01T02:38:07;21.10;90.10
17740;DHT22;8990;33.226;-97.150;2023-03-01T02:40:38;21.00;89.60
17740;DHT22;8990;33.226;-97.150;2023-03-01T02:43:10;21.00;89.30
17740;DHT22;8990;33.226;-97.150;2023-03-01T02:45:48;20.90;89.50
17740;DHT22;8990;33.226;-97.150;2023-03-01T02:48:19;20.90;89.70
17740;DHT22;8990;33.226;-97.150;2023-03-01T02:51:02;20.90;90.10
17740;DHT22;8990;33.226;-97.150;2023-03-01T02:53:39;20.90;90.40
17740;DHT22;8990;33.226;-97.150;2023-03-01T02:56:11;20.80;89.10
17740;DHT22;8990;33.226;-97.150;2023-03-01T02:58:42;20.80;88.70
17740;DHT22;8990;33.226;-97.150;2023-03-01T03:01:20;20.70;88.20
17740;DHT22;8990;33.226;-97.150;2023-03-01T03:03:49;20.70;87.90
17740;DHT22;8990;33.226;-97.150;2023-03-01T03:06:19;20.70;87.90
17740;DHT22;8990;33.226;-97.150;2023-03-01T03:08:47;20.60;88.30
17740;DHT22;8990;33.226;-97.150;2023-03-01T03:11:16;20.60;89.00
17740;DHT22;8990;33.226;-97.150;2023-03-01T03:13:46;20.50;88.60
17740;DHT22;8990;33.226;-97.150;2023-03-01T03:16:16;20.50;89.20
17740;DHT22;8990;33.226;-97.150;2023-03-01T03:18:47;20.40;89.30
17740;DHT22;8990;33.226;-97.150;2023-03-01T03:21:16;20.40;89.90
17740;DHT22;8990;33.226;-97.150;2023-03-01T03:23:45;20.40;90.20
17740;DHT22;8990;33.226;-97.150;2023-03-01T03:26:14;20.40;90.30
17740;DHT22;8990;33.226;-97.150;2023-03-01T03:28:44;20.40;90.60
17740;DHT22;8990;33.226;-97.150;2023-03-01T03:31:13;20.40;90.90
17740;DHT22;8990;33.226;-97.150;2023-03-01T03:33:42;20.30;90.60
17740;DHT22;8990;33.226;-97.150;2023-03-01T03:36:18;20.30;90.80
17740;DHT22;8990;33.226;-97.150;2023-03-01T03:38:47;20.30;91.20
17740;DHT22;8990;33.226;-97.150;2023-03-01T03:41:17;20.40;91.30
17740;DHT22;8990;33.226;-97.150;2023-03-01T03:43:47;20.20;91.70
17740;DHT22;8990;33.226;-97.150;2023-03-01T03:46:16;20.20;91.60
17740;DHT22;8990;33.226;-97.150;2023-03-01T03:48:45;20.10;91.80
17740;DHT22;8990;33.226;-97.150;2023-03-01T03:51:18;20.20;92.00
17740;DHT22;8990;33.226;-97.150;2023-03-01T03:53:49;20.20;92.40
17740;DHT22;8990;33.226;-97.150;2023-03-01T03:56:18;20.20;92.40
17740;DHT22;8990;33.226;-97.150;2023-03-01T03:58:52;20.10;92.70
17740;DHT22;8990;33.226;-97.150;2023-03-01T04:01:21;20.20;92.90
17740;DHT22;8990;33.226;-97.150;2023-03-01T04:03:50;20.20;93.50
17740;DHT22;8990;33.226;-97.150;2023-03-01T04:06:22;20.10;93.70
17740;DHT22;8990;33.226;-97.150;2023-03-01T04:08:51;20.20;94.50
17740;DHT22;8990;33.226;-97.150;2023-03-01T04:11:25;20.20;94.20
17740;DHT22;8990;33.226;-97.150;2023-03-01T04:13:57;20.20;94.70
17740;DHT22;8990;33.226;-97.150;2023-03-01T04:16:27;20.20;95.20
17740;DHT22;8990;33.226;-97.150;2023-03-01T04:18:56;20.10;95.50
17740;DHT22;8990;33.226;-97.150;2023-03-01T04:21:29;20.20;95.70
17740;DHT22;8990;33.226;-97.150;2023-03-01T04:23:59;20.20;99.50
17740;DHT22;8990;33.226;-97.150;2023-03-01T04:26:30;20.20;99.90
17740;DHT22;8990;33.226;-97.150;2023-03-01T04:28:59;20.20;99.90
17740;DHT22;8990;33.226;-97.150;2023-03-01T04:31:28;20.10;99.90
17740;DHT22;8990;33.226;-97.150;2023-03-01T04:33:57;20.10;99.90
17740;DHT22;8990;33.226;-97.150;2023-03-01T04:36:29;20.10;99.90
17740;DHT22;8990;33.226;-97.150;2023-03-01T04:38:58;20.00;99.90
17740;DHT22;8990;33.226;-97.150;2023-03-01T04:41:33;20.00;99.90
17740;DHT22;8990;33.226;-97.150;2023-03-01T04:44:02;20.00;99.90
17740;DHT22;8990;33.226;-97.150;2023-03-01T04:46:32;20.00;99.90
17740;DHT22;8990;33.226;-97.150;2023-03-01T04:49:00;19.90;99.90
17740;DHT22;8990;33.226;-97.150;2023-03-01T04:51:31;19.90;99.90
17740;DHT22;8990;33.226;-97.150;2023-03-01T04:54:00;19.90;99.90
17740;DHT22;8990;33.226;-97.150;2023-03-01T04:56:30;19.90;99.90
17740;DHT22;8990;33.226;-97.150;2023-03-01T04:58:59;19.90;99.90
17740;DHT22;8990;33.226;-97.150;2023-03-01T05:01:32;19.90;99.90
17740;DHT22;8990;33.226;-97.150;2023-03-01T05:04:02;19.70;99.90
17740;DHT22;8990;33.226;-97.150;2023-03-01T05:06:34;19.80;99.90
17740;DHT22;8990;33.226;-97.150;2023-03-01T05:09:03;19.80;99.90
17740;DHT22;8990;33.226;-97.150;2023-03-01T05:11:32;19.90;99.90
17740;DHT22;8990;33.226;-97.150;2023-03-01T05:14:03;19.80;99.90
17740;DHT22;8990;33.226;-97.150;2023-03-01T05:16:33;19.80;99.90
17740;DHT22;8990;33.226;-97.150;2023-03-01T05:19:03;19.80;99.90
17740;DHT22;8990;33.226;-97.150;2023-03-01T05:21:39;19.90;99.90
17740;DHT22;8990;33.226;-97.150;2023-03-01T05:24:28;19.80;99.90
17740;DHT22;8990;33.226;-97.150;2023-03-01T05:26:58;19.80;99.90
17740;DHT22;8990;33.226;-97.150;2023-03-01T05:29:28;19.80;99.90
17740;DHT22;8990;33.226;-97.150;2023-03-01T05:31:59;19.80;99.90
17740;DHT22;8990;33.226;-97.150;2023-03-01T05:34:29;19.90;99.90
17740;DHT22;8990;33.226;-97.150;2023-03-01T05:37:00;19.80;99.90
17740;DHT22;8990;33.226;-97.150;2023-03-01T05:39:30;19.90;99.90
17740;DHT22;8990;33.226;-97.150;2023-03-01T05:42:00;19.80;99.90
17740;DHT22;8990;33.226;-97.150;2023-03-01T05:44:29;19.80;99.90
17740;DHT22;8990;33.226;-97.150;2023-03-01T05:46:58;19.80;99.90
17740;DHT22;8990;33.226;-97.150;2023-03-01T05:49:27;19.80;99.90
17740;DHT22;8990;33.226;-97.150;2023-03-01T05:51:56;19.80;99.90
17740;DHT22;8990;33.226;-97.150;2023-03-01T05:54:27;19.80;99.90
17740;DHT22;8990;33.226;-97.150;2023-03-01T05:56:56;19.70;99.90
17740;DHT22;8990;33.226;-97.150;2023-03-01T05:59:25;19.70;99.90
17740;DHT22;8990;33.226;-97.150;2023-03-01T06:01:54;19.70;99.90
17740;DHT22;8990;33.226;-97.150;2023-03-01T06:04:22;19.70;99.90
17740;DHT22;8990;33.226;-97.150;2023-03-01T06:06:51;19.60;99.90
17740;DHT22;8990;33.226;-97.150;2023-03-01T06:09:20;19.60;99.90
17740;DHT22;8990;33.226;-97.150;2023-03-01T06:11:52;19.60;99.90
17740;DHT22;8990;33.226;-97.150;2023-03-01T06:14:21;19.60;99.90
17740;DHT22;8990;33.226;-97.150;2023-03-01T06:16:49;19.50;99.90
17740;DHT22;8990;33.226;-97.150;2023-03-01T06:19:19;19.50;99.90
17740;DHT22;8990;33.226;-97.150;2023-03-01T06:21:47;19.50;99.90
17740;DHT22;8990;33.226;-97.150;2023-03-01T06:24:16;19.50;99.90
17740;DHT22;8990;33.226;-97.150;2023-03-01T06:26:45;19.50;99.90
17740;DHT22;8990;33.226;-97.150;2023-03-01T06:29:16;19.50;99.90
17740;DHT22;8990;33.226;-97.150;2023-03-01T06:31:45;19.50;99.90
17740;DHT22;8990;33.226;-97.150;2023-03-01T06:34:14;19.50;99.90
17740;DHT22;8990;33.226;-97.150;2023-03-01T06:36:44;19.50;99.90
17740;DHT22;8990;33.226;-97.150;2023-03-01T06:39:13;19.60;99.90
17740;DHT22;8990;33.226;-97.150;2023-03-01T06:41:44;19.60;99.90
17740;DHT22;8990;33.226;-97.150;2023-03-01T06:44:15;19.60;99.90
17740;DHT22;8990;33.226;-97.150;2023-03-01T06:46:44;19.60;99.90
17740;DHT22;8990;33.226;-97.150;2023-03-01T06:49:13;19.60;99.90
17740;DHT22;8990;33.226;-97.150;2023-03-01T06:51:45;19.60;99.90
17740;DHT22;8990;33.226;-97.150;2023-03-01T06:54:14;19.60;99.90
17740;DHT22;8990;33.226;-97.150;2023-03-01T06:56:47;19.50;99.90
17740;DHT22;8990;33.226;-97.150;2023-03-01T06:59:18;19.50;99.90
17740;DHT22;8990;33.226;-97.150;2023-03-01T07:01:47;19.50;99.90
17740;DHT22;8990;33.226;-97.150;2023-03-01T07:04:16;19.50;99.90
17740;DHT22;8990;33.226;-97.150;2023-03-01T07:06:45;19.40;99.90
17740;DHT22;8990;33.226;-97.150;2023-03-01T07:09:21;19.40;99.90
17740;DHT22;8990;33.226;-97.150;2023-03-01T07:11:50;19.40;99.90
17740;DHT22;8990;33.226;-97.150;2023-03-01T07:14:20;19.40;99.90
17740;DHT22;8990;33.226;-97.150;2023-03-01T07:16:51;19.40;99.90
17740;DHT22;8990;33.226;-97.150;2023-03-01T07:19:20;19.50;99.90
17740;DHT22;8990;33.226;-97.150;2023-03-01T07:21:49;19.50;99.90
17740;DHT22;8990;33.226;-97.150;2023-03-01T07:24:18;19.40;99.90
17740;DHT22;8990;33.226;-97.150;2023-03-01T07:26:49;19.40;99.90
17740;DHT22;8990;33.226;-97.150;2023-03-01T07:29:20;19.50;99.90
17740;DHT22;8990;33.226;-97.150;2023-03-01T07:31:49;19.50;99.90
17740;DHT22;8990;33.226;-97.150;2023-03-01T07:34:17;19.40;99.90
17740;DHT22;8990;33.226;-97.150;2023-03-01T07:36:46;19.50;99.90
17740;DHT22;8990;33.226;-97.150;2023-03-01T07:39:15;19.40;99.90
17740;DHT22;8990;33.226;-97.150;2023-03-01T07:41:44;19.50;99.90
17740;DHT22;8990;33.226;-97.150;2023-03-01T07:44:13;19.60;99.90
17740;DHT22;8990;33.226;-97.150;2023-03-01T07:46:45;19.60;99.90
17740;DHT22;8990;33.226;-97.150;2023-03-01T07:49:15;19.70;99.90
17740;DHT22;8990;33.226;-97.150;2023-03-01T07:51:45;19.60;99.90
17740;DHT22;8990;33.226;-97.150;2023-03-01T07:54:14;19.70;99.90
17740;DHT22;8990;33.226;-97.150;2023-03-01T07:56:43;19.60;99.90
17740;DHT22;8990;33.226;-97.150;2023-03-01T07:59:12;19.70;99.90
17740;DHT22;8990;33.226;-97.150;2023-03-01T08:01:41;19.60;99.90
17740;DHT22;8990;33.226;-97.150;2023-03-01T08:04:11;19.70;99.90
17740;DHT22;8990;33.226;-97.150;2023-03-01T08:06:41;19.70;99.90
17740;DHT22;8990;33.226;-97.150;2023-03-01T08:09:10;19.80;99.90
17740;DHT22;8990;33.226;-97.150;2023-03-01T08:11:38;19.70;99.90
17740;DHT22;8990;33.226;-97.150;2023-03-01T08:14:07;19.80;99.90
17740;DHT22;8990;33.226;-97.150;2023-03-01T08:16:37;19.80;99.90
17740;DHT22;8990;33.226;-97.150;2023-03-01T08:19:06;19.80;99.90
17740;DHT22;8990;33.226;-97.150;2023-03-01T08:21:37;19.80;99.90
17740;DHT22;8990;33.226;-97.150;2023-03-01T08:24:07;19.80;99.90
17740;DHT22;8990;33.226;-97.150;2023-03-01T08:26:37;19.80;99.90
17740;DHT22;8990;33.226;-97.150;2023-03-01T08:29:07;19.70;99.90
17740;DHT22;8990;33.226;-97.150;2023-03-01T08:34:06;19.70;99.90
17740;DHT22;8990;33.226;-97.150;2023-03-01T08:36:38;19.60;99.90
17740;DHT22;8990;33.226;-97.150;2023-03-01T08:39:09;19.60;99.90
17740;DHT22;8990;33.226;-97.150;2023-03-01T08:41:38;19.60;99.90
17740;DHT22;8990;33.226;-97.150;2023-03-01T08:44:07;19.60;99.90
17740;DHT22;8990;33.226;-97.150;2023-03-01T08:46:37;19.60;99.90
17740;DHT22;8990;33.226;-97.150;2023-03-01T08:49:08;19.60;99.90
17740;DHT22;8990;33.226;-97.150;2023-03-01T08:51:39;19.60;99.90
17740;DHT22;8990;33.226;-97.150;2023-03-01T08:54:10;19.60;99.90
17740;DHT22;8990;33.226;-97.150;2023-03-01T08:56:40;19.50;99.90
17740;DHT22;8990;33.226;-97.150;2023-03-01T08:59:10;19.50;99.90
17740;DHT22;8990;33.226;-97.150;2023-03-01T09:01:39;19.50;99.90
17740;DHT22;8990;33.226;-97.150;2023-03-01T09:04:10;19.40;99.90
17740;DHT22;8990;33.226;-97.150;2023-03-01T09:06:41;19.40;99.90
17740;DHT22;8990;33.226;-97.150;2023-03-01T09:09:14;19.40;99.90
17740;DHT22;8990;33.226;-97.150;2023-03-01T09:11:44;19.50;99.90
17740;DHT22;8990;33.226;-97.150;2023-03-01T09:14:14;19.50;99.90
17740;DHT22;8990;33.226;-97.150;2023-03-01T09:16:43;19.50;99.90
17740;DHT22;8990;33.226;-97.150;2023-03-01T09:19:14;19.50;99.90
17740;DHT22;8990;33.226;-97.150;2023-03-01T09:21:44;19.40;99.90
17740;DHT22;8990;33.226;-97.150;2023-03-01T09:24:20;19.50;99.90
17740;DHT22;8990;33.226;-97.150;2023-03-01T09:26:52;19.50;99.90
17740;DHT22;8990;33.226;-97.150;2023-03-01T09:29:22;19.40;99.90
17740;DHT22;8990;33.226;-97.150;2023-03-01T09:31:51;19.40;99.90
17740;DHT22;8990;33.226;-97.150;2023-03-01T09:34:22;19.40;99.90
17740;DHT22;8990;33.226;-97.150;2023-03-01T09:36:53;19.30;99.90
17740;DHT22;8990;33.226;-97.150;2023-03-01T09:39:23;19.40;99.90
17740;DHT22;8990;33.226;-97.150;2023-03-01T09:41:57;19.30;99.90
17740;DHT22;8990;33.226;-97.150;2023-03-01T09:44:34;19.30;99.90
17740;DHT22;8990;33.226;-97.150;2023-03-01T09:47:08;19.40;99.90
17740;DHT22;8990;33.226;-97.150;2023-03-01T09:49:40;19.30;99.90
17740;DHT22;8990;33.226;-97.150;2023-03-01T09:52:22;19.30;99.90
17740;DHT22;8990;33.226;-97.150;2023-03-01T09:54:54;19.30;99.90
17740;DHT22;8990;33.226;-97.150;2023-03-01T09:57:31;19.20;99.90
17740;DHT22;8990;33.226;-97.150;2023-03-01T10:03:01;19.20;99.90
17740;DHT22;8990;33.226;-97.150;2023-03-01T10:05:47;19.20;99.90
17740;DHT22;8990;33.226;-97.150;2023-03-01T10:08:31;19.20;99.90
17740;DHT22;8990;33.226;-97.150;2023-03-01T10:11:04;19.20;99.90
17740;DHT22;8990;33.226;-97.150;2023-03-01T10:13:40;19.10;99.90
17740;DHT22;8990;33.226;-97.150;2023-03-01T10:16:13;19.10;99.90
17740;DHT22;8990;33.226;-97.150;2023-03-01T10:18:45;19.20;99.90
17740;DHT22;8990;33.226;-97.150;2023-03-01T10:21:17;19.10;99.90
17740;DHT22;8990;33.226;-97.150;2023-03-01T10:23:50;19.00;99.90
17740;DHT22;8990;33.226;-97.150;2023-03-01T10:26:30;19.00;99.90
17740;DHT22;8990;33.226;-97.150;2023-03-01T10:29:04;19.00;99.90
17740;DHT22;8990;33.226;-97.150;2023-03-01T10:31:39;18.90;99.90
17740;DHT22;8990;33.226;-97.150;2023-03-01T10:34:14;18.90;99.90
17740;DHT22;8990;33.226;-97.150;2023-03-01T10:36:48;18.90;99.90
17740;DHT22;8990;33.226;-97.150;2023-03-01T10:39:23;18.90;99.90
17740;DHT22;8990;33.226;-97.150;2023-03-01T10:41:58;18.90;99.90
17740;DHT22;8990;33.226;-97.150;2023-03-01T10:44:39;18.90;99.90
17740;DHT22;8990;33.226;-97.150;2023-03-01T10:47:14;18.80;99.90
17740;DHT22;8990;33.226;-97.150;2023-03-01T10:49:58;18.90;99.90
17740;DHT22;8990;33.226;-97.150;2023-03-01T10:52:33;18.80;99.90
17740;DHT22;8990;33.226;-97.150;2023-03-01T10:55:19;18.80;99.90
17740;DHT22;8990;33.226;-97.150;2023-03-01T10:58:07;18.80;99.90
17740;DHT22;8990;33.226;-97.150;2023-03-01T11:00:48;18.90;99.90
17740;DHT22;8990;33.226;-97.150;2023-03-01T11:03:21;18.80;99.90
17740;DHT22;8990;33.226;-97.150;2023-03-01T11:06:19;18.80;99.90
17740;DHT22;8990;33.226;-97.150;2023-03-01T11:08:49;18.80;99.90
17740;DHT22;8990;33.226;-97.150;2023-03-01T11:11:23;18.80;99.90
17740;DHT22;8990;33.226;-97.150;2023-03-01T11:13:57;18.90;99.90
17740;DHT22;8990;33.226;-97.150;2023-03-01T11:16:30;18.80;99.90
17740;DHT22;8990;33.226;-97.150;2023-03-01T11:21:53;18.80;99.90
17740;DHT22;8990;33.226;-97.150;2023-03-01T11:24:30;18.90;99.90
17740;DHT22;8990;33.226;-97.150;2023-03-01T11:27:04;18.80;99.90
17740;DHT22;8990;33.226;-97.150;2023-03-01T11:29:38;18.80;99.90
17740;DHT22;8990;33.226;-97.150;2023-03-01T11:32:11;18.80;99.90
17740;DHT22;8990;33.226;-97.150;2023-03-01T11:34:45;18.70;99.90
17740;DHT22;8990;33.226;-97.150;2023-03-01T11:37:23;18.70;99.90
17740;DHT22;8990;33.226;-97.150;2023-03-01T11:40:05;18.70;99.90
17740;DHT22;8990;33.226;-97.150;2023-03-01T11:42:51;18.60;99.90
17740;DHT22;8990;33.226;-97.150;2023-03-01T11:45:23;18.70;99.90
17740;DHT22;8990;33.226;-97.150;2023-03-01T11:48:05;18.80;99.90
17740;DHT22;8990;33.226;-97.150;2023-03-01T11:50:40;18.70;99.90
17740;DHT22;8990;33.226;-97.150;2023-03-01T11:53:32;18.70;99.90
17740;DHT22;8990;33.226;-97.150;2023-03-01T11:56:13;18.60;99.90
17740;DHT22;8990;33.226;-97.150;2023-03-01T11:59:17;18.60;99.90
17740;DHT22;8990;33.226;-97.150;2023-03-01T12:02:01;18.60;99.90
17740;DHT22;8990;33.226;-97.150;2023-03-01T12:05:00;18.70;99.90
17740;DHT22;8990;33.226;-97.150;2023-03-01T12:07:38;18.70;99.90
17740;DHT22;8990;33.226;-97.150;2023-03-01T12:10:21;18.70;99.90
17740;DHT22;8990;33.226;-97.150;2023-03-01T12:13:17;18.70;99.90
17740;DHT22;8990;33.226;-97.150;2023-03-01T12:16:08;18.60;99.90
17740;DHT22;8990;33.226;-97.150;2023-03-01T12:19:01;18.60;99.90
17740;DHT22;8990;33.226;-97.150;2023-03-01T12:21:59;18.60;99.90
17740;DHT22;8990;33.226;-97.150;2023-03-01T12:24:51;18.50;99.90
17740;DHT22;8990;33.226;-97.150;2023-03-01T12:27:41;18.50;99.90
17740;DHT22;8990;33.226;-97.150;2023-03-01T12:30:31;18.20;99.90
17740;DHT22;8990;33.226;-97.150;2023-03-01T12:33:14;18.30;99.90
17740;DHT22;8990;33.226;-97.150;2023-03-01T12:39:11;18.20;99.90
17740;DHT22;8990;33.226;-97.150;2023-03-01T12:41:48;18.30;99.90
17740;DHT22;8990;33.226;-97.150;2023-03-01T12:44:32;18.20;99.90
17740;DHT22;8990;33.226;-97.150;2023-03-01T12:47:12;18.20;99.90
17740;DHT22;8990;33.226;-97.150;2023-03-01T12:49:47;18.10;99.90
17740;DHT22;8990;33.226;-97.150;2023-03-01T12:52:21;18.10;99.90
17740;DHT22;8990;33.226;-97.150;2023-03-01T12:54:53;18.00;99.90
17740;DHT22;8990;33.226;-97.150;2023-03-01T12:57:29;18.10;99.90
17740;DHT22;8990;33.226;-97.150;2023-03-01T13:00:17;18.10;99.90
17740;DHT22;8990;33.226;-97.150;2023-03-01T13:02:55;18.00;99.90
17740;DHT22;8990;33.226;-97.150;2023-03-01T13:05:34;17.90;99.90
17740;DHT22;8990;33.226;-97.150;2023-03-01T13:08:13;17.90;99.90
17740;DHT22;8990;33.226;-97.150;2023-03-01T13:10:48;18.00;99.90
17740;DHT22;8990;33.226;-97.150;2023-03-01T13:13:22;17.90;99.90
17740;DHT22;8990;33.226;-97.150;2023-03-01T13:15:52;18.00;99.90
17740;DHT22;8990;33.226;-97.150;2023-03-01T13:18:32;17.80;99.90
17740;DHT22;8990;33.226;-97.150;2023-03-01T13:21:04;17.80;99.90
17740;DHT22;8990;33.226;-97.150;2023-03-01T13:23:36;17.80;99.90
17740;DHT22;8990;33.226;-97.150;2023-03-01T13:26:10;17.70;99.90
17740;DHT22;8990;33.226;-97.150;2023-03-01T13:28:54;17.70;99.90
17740;DHT22;8990;33.226;-97.150;2023-03-01T13:32:00;17.80;99.90
17740;DHT22;8990;33.226;-97.150;2023-03-01T13:34:48;17.70;99.90
17740;DHT22;8990;33.226;-97.150;2023-03-01T13:37:34;17.70;99.90
17740;DHT22;8990;33.226;-97.150;2023-03-01T13:43:29;17.80;99.90
17740;DHT22;8990;33.226;-97.150;2023-03-01T13:46:00;17.90;99.90
17740;DHT22;8990;33.226;-97.150;2023-03-01T13:48:30;17.80;99.90
17740;DHT22;8990;33.226;-97.150;2023-03-01T13:51:02;18.00;99.90
17740;DHT22;8990;33.226;-97.150;2023-03-01T13:53:36;17.90;99.90
17740;DHT22;8990;33.226;-97.150;2023-03-01T13:56:09;18.00;99.90
17740;DHT22;8990;33.226;-97.150;2023-03-01T13:58:49;18.00;99.90
17740;DHT22;8990;33.226;-97.150;2023-03-01T14:01:24;17.90;99.90
17740;DHT22;8990;33.226;-97.150;2023-03-01T14:03:54;18.00;99.90
17740;DHT22;8990;33.226;-97.150;2023-03-01T14:06:25;18.00;99.90
17740;DHT22;8990;33.226;-97.150;2023-03-01T14:09:04;17.90;99.90
17740;DHT22;8990;33.226;-97.150;2023-03-01T14:14:52;17.90;99.90
17740;DHT22;8990;33.226;-97.150;2023-03-01T14:17:47;18.00;99.90
17740;DHT22;8990;33.226;-97.150;2023-03-01T14:20:20;18.10;99.90
17740;DHT22;8990;33.226;-97.150;2023-03-01T14:22:51;18.20;99.90
17740;DHT22;8990;33.226;-97.150;2023-03-01T14:25:28;18.10;99.90
17740;DHT22;8990;33.226;-97.150;2023-03-01T14:28:01;18.20;99.90
17740;DHT22;8990;33.226;-97.150;2023-03-01T14:30:34;18.20;99.90
17740;DHT22;8990;33.226;-97.150;2023-03-01T14:33:17;18.20;99.90
17740;DHT22;8990;33.226;-97.150;2023-03-01T14:35:54;18.40;99.90
17740;DHT22;8990;33.226;-97.150;2023-03-01T14:38:28;18.60;99.90
17740;DHT22;8990;33.226;-97.150;2023-03-01T14:41:02;18.70;99.90
17740;DHT22;8990;33.226;-97.150;2023-03-01T14:43:32;19.00;99.90
17740;DHT22;8990;33.226;-97.150;2023-03-01T14:46:01;19.10;99.90
17740;DHT22;8990;33.226;-97.150;2023-03-01T14:48:31;19.30;99.90
17740;DHT22;8990;33.226;-97.150;2023-03-01T14:51:01;19.50;99.90
17740;DHT22;8990;33.226;-97.150;2023-03-01T14:53:30;19.60;99.90
17740;DHT22;8990;33.226;-97.150;2023-03-01T14:56:02;19.80;99.90
17740;DHT22;8990;33.226;-97.150;2023-03-01T14:58:32;19.90;99.90
17740;DHT22;8990;33.226;-97.150;2023-03-01T15:01:03;19.90;99.90
17740;DHT22;8990;33.226;-97.150;2023-03-01T15:03:35;19.90;99.90
17740;DHT22;8990;33.226;-97.150;2023-03-01T15:06:07;20.00;99.90
17740;DHT22;8990;33.226;-97.150;2023-03-01T15:08:38;20.20;99.90
17740;DHT22;8990;33.226;-97.150;2023-03-01T15:11:21;20.20;99.90
17740;DHT22;8990;33.226;-97.150;2023-03-01T15:13:51;20.40;99.90
17740;DHT22;8990;33.226;-97.150;2023-03-01T15:16:23;20.50;99.90
17740;DHT22;8990;33.226;-97.150;2023-03-01T15:18:55;20.50;99.90
17740;DHT22;8990;33.226;-97.150;2023-03-01T15:21:27;20.50;99.90
17740;DHT22;8990;33.226;-97.150;2023-03-01T15:24:07;20.80;99.90
17740;DHT22;8990;33.226;-97.150;2023-03-01T15:26:52;20.70;99.90
17740;DHT22;8990;33.226;-97.150;2023-03-01T15:29:25;20.80;99.90
17740;DHT22;8990;33.226;-97.150;2023-03-01T15:31:58;20.90;99.90
17740;DHT22;8990;33.226;-97.150;2023-03-01T15:34:29;21.00;99.90
17740;DHT22;8990;33.226;-97.150;2023-03-01T15:37:00;21.10;99.90
17740;DHT22;8990;33.226;-97.150;2023-03-01T15:39:35;21.30;99.90
17740;DHT22;8990;33.226;-97.150;2023-03-01T15:42:12;21.30;99.90
17740;DHT22;8990;33.226;-97.150;2023-03-01T15:44:43;21.30;99.90
17740;DHT22;8990;33.226;-97.150;2023-03-01T15:47:38;21.40;99.90
17740;DHT22;8990;33.226;-97.150;2023-03-01T15:50:17;21.30;99.90
17740;DHT22;8990;33.226;-97.150;2023-03-01T15:52:47;21.30;99.90
17740;DHT22;8990;33.226;-97.150;2023-03-01T15:55:20;21.30;99.90
17740;DHT22;8990;33.226;-97.150;2023-03-01T15:57:58;21.50;99.90
17740;DHT22;8990;33.226;-97.150;2023-03-01T16:00:29;21.50;99.90
17740;DHT22;8990;33.226;-97.150;2023-03-01T16:02:58;21.40;99.90
17740;DHT22;8990;33.226;-97.150;2023-03-01T16:05:28;21.40;99.90
17740;DHT22;8990;33.226;-97.150;2023-03-01T16:07:59;21.40;99.90
17740;DHT22;8990;33.226;-97.150;2023-03-01T16:10:28;21.40;99.90